sensor_id;sensor_type;location;lat;lon;timestamp;pressure;altitude;pressure_sealevel;temperature;humidity
11710;BME280;5911;51.036;6.972;2023-04-29T00:01:16;100499.06;;;14.44;100.00
11710;BME280;5911;51.036;6.972;2023-04-29T00:03:44;100497.69;;;14.40;100.00
11710;BME280;5911;51.036;6.972;2023-04-29T00:06:13;100500.34;;;14.40;100.00
11710;BME280;5911;51.036;6.972;2023-04-29T00:08:42;100492.00;;;14.35;100.00
11710;BME280;5911;51.036;6.972;2023-04-29T00:11:10;100492.09;;;14.43;100.00
11710;BME280;5911;51.036;6.972;2023-04-29T00:13:38;100501.03;;;14.42;100.00
11710;BME280;5911;51.036;6.972;2023-04-29T00:16:07;100499.22;;;14.42;100.00
11710;BME280;5911;51.036;6.972;2023-04-29T00:18:35;100502.00;;;14.41;100.00
11710;BME280;5911;51.036;6.972;2023-04-29T00:21:03;100491.50;;;14.39;100.00
11710;BME280;5911;51.036;6.972;2023-04-29T00:23:32;100496.69;;;14.41;100.00
11710;BME280;5911;51.036;6.972;2023-04-29T00:26:01;100491.66;;;14.38;100.00
11710;BME280;5911;51.036;6.972;2023-04-29T00:28:29;100505.72;;;14.30;100.00
11710;BME280;5911;51.036;6.972;2023-04-29T00:30:57;100495.38;;;14.27;100.00
11710;BME280;5911;51.036;6.972;2023-04-29T00:33:25;100505.41;;;14.33;100.00
11710;BME280;5911;51.036;6.972;2023-04-29T00:35:53;100508.50;;;14.29;100.00
11710;BME280;5911;51.036;6.972;2023-04-29T00:38:20;100506.84;;;14.28;100.00
11710;BME280;5911;51.036;6.972;2023-04-29T00:40:49;100511.84;;;14.31;100.00
11710;BME280;5911;51.036;6.972;2023-04-29T00:43:19;100521.94;;;14.27;100.00
11710;BME280;5911;51.036;6.972;2023-04-29T00:45:47;100521.03;;;14.19;100.00
11710;BME280;5911;51.036;6.972;2023-04-29T00:48:14;100519.22;;;14.19;100.00
11710;BME280;5911;51.036;6.972;2023-04-29T00:50:42;100525.03;;;14.23;100.00
11710;BME280;5911;51.036;6.972;2023-04-29T00:53:10;100523.06;;;14.25;100.00
11710;BME280;5911;51.036;6.972;2023-04-29T00:55:39;100527.47;;;14.16;100.00
11710;BME280;5911;51.036;6.972;2023-04-29T00:58:07;100524.34;;;14.21;100.00
11710;BME280;5911;51.036;6.972;2023-04-29T01:00:37;100522.69;;;14.20;100.00
11710;BME280;5911;51.036;6.972;2023-04-29T01:03:07;100536.25;;;14.17;100.00
11710;BME280;5911;51.036;6.972;2023-04-29T01:05:36;100543.53;;;14.15;100.00
11710;BME280;5911;51.036;6.972;2023-04-29T01:08:13;100540.19;;;14.13;100.00
11710;BME280;5911;51.036;6.972;2023-04-29T01:10:50;100539.06;;;14.15;100.00
11710;BME280;5911;51.036;6.972;2023-04-29T01:13:28;100544.41;;;14.05;100.00
11710;BME280;5911;51.036;6.972;2023-04-29T01:16:03;100541.59;;;14.07;100.00
11710;BME280;5911;51.036;6.972;2023-04-29T01:18:35;100554.72;;;14.08;100.00
11710;BME280;5911;51.036;6.972;2023-04-29T01:21:04;100542.75;;;14.04;100.00
11710;BME280;5911;51.036;6.972;2023-04-29T01:23:34;100545.78;;;14.09;100.00
11710;BME280;5911;51.036;6.972;2023-04-29T01:26:01;100553.06;;;14.07;100.00
11710;BME280;5911;51.036;6.972;2023-04-29T01:29:21;100550.03;;;14.02;100.00
11710;BME280;5911;51.036;6.972;2023-04-29T01:32:00;100558.50;;;14.06;100.00
11710;BME280;5911;51.036;6.972;2023-04-29T01:34:36;100556.69;;;14.06;100.00
11710;BME280;5911;51.036;6.972;2023-04-29T01:37:13;100557.66;;;14.05;100.00
11710;BME280;5911;51.036;6.972;2023-04-29T01:39:57;100548.41;;;13.92;100.00
11710;BME280;5911;51.036;6.972;2023-04-29T01:42:36;100553.81;;;14.00;100.00
11710;BME280;5911;51.036;6.972;2023-04-29T01:45:14;100563.16;;;14.04;100.00
11710;BME280;5911;51.036;6.972;2023-04-29T01:47:43;100556.69;;;14.06;100.00
11710;BME280;5911;51.036;6.972;2023-04-29T01:50:14;100557.16;;;14.02;100.00
11710;BME280;5911;51.036;6.972;2023-04-29T01:52:42;100558.28;;;13.99;100.00
11710;BME280;5911;51.036;6.972;2023-04-29T01:55:11;100563.72;;;13.98;100.00
11710;BME280;5911;51.036;6.972;2023-04-29T01:58:05;100566.38;;;13.98;100.00
11710;BME280;5911;51.036;6.972;2023-04-29T02:00:46;100565.47;;;13.89;100.00
11710;BME280;5911;51.036;6.972;2023-04-29T02:03:14;100567.72;;;13.84;100.00
11710;BME280;5911;51.036;6.972;2023-04-29T02:05:46;100565.75;;;13.86;100.00
11710;BME280;5911;51.036;6.972;2023-04-29T02:08:16;100566.88;;;13.84;100.00
11710;BME280;5911;51.036;6.972;2023-04-29T02:10:52;100569.28;;;13.77;100.00
11710;BME280;5911;51.036;6.972;2023-04-29T02:13:30;100580.47;;;13.71;100.00
11710;BME280;5911;51.036;6.972;2023-04-29T02:16:06;100577.81;;;13.71;100.00
11710;BME280;5911;51.036;6.972;2023-04-29T02:18:35;100573.66;;;13.68;100.00
11710;BME280;5911;51.036;6.972;2023-04-29T02:21:04;100577.13;;;13.69;100.00
11710;BME280;5911;51.036;6.972;2023-04-29T02:23:33;100586.06;;;13.68;100.00
11710;BME280;5911;51.036;6.972;2023-04-29T02:26:03;100581.38;;;13.52;100.00
11710;BME280;5911;51.036;6.972;2023-04-29T02:28:32;100583.75;;;13.55;100.00
11710;BME280;5911;51.036;6.972;2023-04-29T02:31:00;100589.19;;;13.54;100.00
11710;BME280;5911;51.036;6.972;2023-04-29T02:33:29;100586.41;;;13.55;100.00
11710;BME280;5911;51.036;6.972;2023-04-29T02:35:57;100589.28;;;13.62;100.00
11710;BME280;5911;51.036;6.972;2023-04-29T02:38:25;100575.94;;;13.54;100.00
11710;BME280;5911;51.036;6.972;2023-04-29T02:40:53;100589.34;;;13.52;100.00
11710;BME280;5911;51.036;6.972;2023-04-29T02:43:22;100590.72;;;13.56;100.00
11710;BME280;5911;51.036;6.972;2023-04-29T02:45:50;100601.31;;;13.56;100.00
11710;BME280;5911;51.036;6.972;2023-04-29T02:48:18;100599.66;;;13.46;100.00
11710;BME280;5911;51.036;6.972;2023-04-29T02:50:46;100600.06;;;13.51;100.00
11710;BME280;5911;51.036;6.972;2023-04-29T02:53:14;100601.75;;;13.52;100.00
11710;BME280;5911;51.036;6.972;2023-04-29T02:55:42;100603.16;;;13.46;100.00
11710;BME280;5911;51.036;6.972;2023-04-29T02:58:10;100606.94;;;13.44;100.00
11710;BME280;5911;51.036;6.972;2023-04-29T03:00:40;100604.72;;;13.39;100.00
11710;BME280;5911;51.036;6.972;2023-04-29T03:03:08;100609.88;;;13.41;100.00
11710;BME280;5911;51.036;6.972;2023-04-29T03:05:36;100605.94;;;13.45;100.00
11710;BME280;5911;51.036;6.972;2023-04-29T03:08:04;100611.69;;;13.40;100.00
11710;BME280;5911;51.036;6.972;2023-04-29T03:10:36;100617.81;;;13.41;100.00
11710;BME280;5911;51.036;6.972;2023-04-29T03:13:07;100616.16;;;13.40;100.00
11710;BME280;5911;51.036;6.972;2023-04-29T03:15:36;100622.28;;;13.40;100.00
11710;BME280;5911;51.036;6.972;2023-04-29T03:18:06;100619.19;;;13.45;100.00
11710;BME280;5911;51.036;6.972;2023-04-29T03:20:35;100622.00;;;13.43;100.00
11710;BME280;5911;51.036;6.972;2023-04-29T03:23:03;100627.31;;;13.33;100.00
11710;BME280;5911;51.036;6.972;2023-04-29T03:25:31;100624.09;;;13.30;100.00
11710;BME280;5911;51.036;6.972;2023-04-29T03:27:59;100639.88;;;13.31;100.00
11710;BME280;5911;51.036;6.972;2023-04-29T03:30:27;100623.56;;;13.26;100.00
11710;BME280;5911;51.036;6.972;2023-04-29T03:32:56;100631.81;;;13.23;100.00
11710;BME280;5911;51.036;6.972;2023-04-29T03:35:27;100629.16;;;13.23;100.00
11710;BME280;5911;51.036;6.972;2023-04-29T03:38:13;100629.72;;;13.17;100.00
11710;BME280;5911;51.036;6.972;2023-04-29T03:40:42;100632.91;;;13.11;100.00
11710;BME280;5911;51.036;6.972;2023-04-29T03:43:10;100633.59;;;13.13;100.00
11710;BME280;5911;51.036;6.972;2023-04-29T03:45:40;100632.59;;;13.14;100.00
11710;BME280;5911;51.036;6.972;2023-04-29T03:48:08;100635.97;;;13.16;100.00
11710;BME280;5911;51.036;6.972;2023-04-29T03:50:39;100636.94;;;13.15;100.00
11710;BME280;5911;51.036;6.972;2023-04-29T03:53:07;100644.50;;;13.20;100.00
11710;BME280;5911;51.036;6.972;2023-04-29T03:55:35;100643.19;;;13.14;100.00
11710;BME280;5911;51.036;6.972;2023-04-29T03:58:03;100645.72;;;13.06;100.00
11710;BME280;5911;51.036;6.972;2023-04-29T04:00:31;100650.47;;;13.12;100.00
11710;BME280;5911;51.036;6.972;2023-04-29T04:03:03;100654.09;;;13.11;100.00
11710;BME280;5911;51.036;6.972;2023-04-29T04:05:34;100657.44;;;13.13;100.00
11710;BME280;5911;51.036;6.972;2023-04-29T04:08:08;100663.00;;;13.10;100.00
11710;BME280;5911;51.036;6.972;2023-04-29T04:10:50;100665.25;;;13.15;100.00
11710;BME280;5911;51.036;6.972;2023-04-29T04:13:38;100660.22;;;13.12;100.00
11710;BME280;5911;51.036;6.972;2023-04-29T04:16:06;100662.31;;;13.08;100.00
11710;BME280;5911;51.036;6.972;2023-04-29T04:18:34;100658.56;;;13.11;100.00
11710;BME280;5911;51.036;6.972;2023-04-29T04:21:04;100663.84;;;13.11;100.00
11710;BME280;5911;51.036;6.972;2023-04-29T04:23:35;100668.31;;;13.10;100.00
11710;BME280;5911;51.036;6.972;2023-04-29T04:26:07;100665.81;;;13.09;100.00
11710;BME280;5911;51.036;6.972;2023-04-29T04:28:55;100682.53;;;13.09;100.00
11710;BME280;5911;51.036;6.972;2023-04-29T04:31:30;100681.13;;;13.05;100.00
11710;BME280;5911;51.036;6.972;2023-04-29T04:33:58;100678.03;;;13.00;100.00
11710;BME280;5911;51.036;6.972;2023-04-29T04:36:27;100690.88;;;13.04;100.00
11710;BME280;5911;51.036;6.972;2023-04-29T04:38:57;100678.50;;;12.95;100.00
11710;BME280;5911;51.036;6.972;2023-04-29T04:41:25;100698.00;;;13.04;100.00
11710;BME280;5911;51.036;6.972;2023-04-29T04:43:52;100698.69;;;12.96;100.00
11710;BME280;5911;51.036;6.972;2023-04-29T04:46:33;100703.84;;;12.98;100.00
11710;BME280;5911;51.036;6.972;2023-04-29T04:49:07;100710.41;;;12.94;100.00
11710;BME280;5911;51.036;6.972;2023-04-29T04:51:42;100707.19;;;13.00;100.00
11710;BME280;5911;51.036;6.972;2023-04-29T04:54:12;100709.53;;;12.84;100.00
11710;BME280;5911;51.036;6.972;2023-04-29T04:56:40;100703.44;;;12.93;100.00
11710;BME280;5911;51.036;6.972;2023-04-29T04:59:08;100714.84;;;12.93;100.00
11710;BME280;5911;51.036;6.972;2023-04-29T05:01:38;100718.22;;;12.95;100.00
11710;BME280;5911;51.036;6.972;2023-04-29T05:04:06;100721.25;;;12.91;100.00
11710;BME280;5911;51.036;6.972;2023-04-29T05:06:34;100720.28;;;12.92;100.00
11710;BME280;5911;51.036;6.972;2023-04-29T05:09:03;100733.78;;;12.89;100.00
11710;BME280;5911;51.036;6.972;2023-04-29T05:11:34;100728.22;;;12.92;100.00
11710;BME280;5911;51.036;6.972;2023-04-29T05:14:11;100729.06;;;12.92;100.00
11710;BME280;5911;51.036;6.972;2023-04-29T05:16:40;100732.13;;;12.88;100.00
11710;BME280;5911;51.036;6.972;2023-04-29T05:19:09;100736.44;;;12.89;100.00
11710;BME280;5911;51.036;6.972;2023-04-29T05:21:39;100740.75;;;12.90;100.00
11710;BME280;5911;51.036;6.972;2023-04-29T05:24:12;100747.16;;;12.87;100.00
11710;BME280;5911;51.036;6.972;2023-04-29T05:26:42;100745.91;;;12.82;100.00
11710;BME280;5911;51.036;6.972;2023-04-29T05:29:10;100745.34;;;12.88;100.00
11710;BME280;5911;51.036;6.972;2023-04-29T05:31:46;100752.75;;;12.94;100.00
11710;BME280;5911;51.036;6.972;2023-04-29T05:34:14;100754.84;;;12.90;100.00
11710;BME280;5911;51.036;6.972;2023-04-29T05:36:42;100756.66;;;12.90;100.00
11710;BME280;5911;51.036;6.972;2023-04-29T05:39:11;100746.31;;;12.87;100.00
11710;BME280;5911;51.036;6.972;2023-04-29T05:41:39;100752.19;;;12.90;100.00
11710;BME280;5911;51.036;6.972;2023-04-29T05:44:16;100759.72;;;12.95;100.00
11710;BME280;5911;51.036;6.972;2023-04-29T05:46:45;100766.84;;;12.94;100.00
11710;BME280;5911;51.036;6.972;2023-04-29T05:49:14;100772.28;;;12.93;100.00
11710;BME280;5911;51.036;6.972;2023-04-29T05:51:42;100772.81;;;12.87;100.00
11710;BME280;5911;51.036;6.972;2023-04-29T05:54:10;100779.50;;;12.91;100.00
11710;BME280;5911;51.036;6.972;2023-04-29T05:56:41;100785.78;;;12.90;100.00
11710;BME280;5911;51.036;6.972;2023-04-29T05:59:09;100788.59;;;12.98;100.00
11710;BME280;5911;51.036;6.972;2023-04-29T06:01:39;100788.03;;;12.94;100.00
11710;BME280;5911;51.036;6.972;2023-04-29T06:04:07;100784.28;;;12.97;100.00
11710;BME280;5911;51.036;6.972;2023-04-29T06:06:56;100798.19;;;12.99;100.00
11710;BME280;5911;51.036;6.972;2023-04-29T06:09:45;100796.81;;;12.95;100.00
11710;BME280;5911;51.036;6.972;2023-04-29T06:12:13;100805.44;;;12.97;100.00
11710;BME280;5911;51.036;6.972;2023-04-29T06:14:45;100805.84;;;13.02;100.00
11710;BME280;5911;51.036;6.972;2023-04-29T06:17:16;100814.25;;;13.07;100.00
11710;BME280;5911;51.036;6.972;2023-04-29T06:19:44;100814.69;;;13.12;100.00
11710;BME280;5911;51.036;6.972;2023-04-29T06:22:12;100817.72;;;13.08;100.00
11710;BME280;5911;51.036;6.972;2023-04-29T06:24:46;100816.22;;;13.15;100.00
11710;BME280;5911;51.036;6.972;2023-04-29T06:27:23;100825.00;;;13.15;100.00
11710;BME280;5911;51.036;6.972;2023-04-29T06:29:51;100824.44;;;13.12;100.00
11710;BME280;5911;51.036;6.972;2023-04-29T06:32:22;100834.91;;;13.13;100.00
11710;BME280;5911;51.036;6.972;2023-04-29T06:34:50;100829.47;;;13.15;100.00
11710;BME280;5911;51.036;6.972;2023-04-29T06:37:39;100837.56;;;13.13;100.00
11710;BME280;5911;51.036;6.972;2023-04-29T06:40:19;100839.81;;;13.18;100.00
11710;BME280;5911;51.036;6.972;2023-04-29T06:43:02;100845.66;;;13.21;100.00
11710;BME280;5911;51.036;6.972;2023-04-29T06:45:33;100848.19;;;13.23;100.00
11710;BME280;5911;51.036;6.972;2023-04-29T06:48:08;100850.44;;;13.27;100.00
11710;BME280;5911;51.036;6.972;2023-04-29T06:50:48;100852.38;;;13.25;100.00
11710;BME280;5911;51.036;6.972;2023-04-29T06:53:16;100853.44;;;13.13;100.00
11710;BME280;5911;51.036;6.972;2023-04-29T06:55:44;100865.50;;;13.27;100.00
11710;BME280;5911;51.036;6.972;2023-04-29T06:58:12;100865.75;;;13.24;100.00
11710;BME280;5911;51.036;6.972;2023-04-29T07:00:43;100859.06;;;13.29;100.00
11710;BME280;5911;51.036;6.972;2023-04-29T07:03:13;100865.75;;;13.33;100.00
11710;BME280;5911;51.036;6.972;2023-04-29T07:05:42;100866.03;;;13.30;100.00
11710;BME280;5911;51.036;6.972;2023-04-29T07:08:11;100869.97;;;13.36;100.00
11710;BME280;5911;51.036;6.972;2023-04-29T07:10:39;100869.97;;;13.36;100.00
11710;BME280;5911;51.036;6.972;2023-04-29T07:13:07;100869.69;;;13.39;100.00
11710;BME280;5911;51.036;6.972;2023-04-29T07:15:35;100880.69;;;13.34;100.00
11710;BME280;5911;51.036;6.972;2023-04-29T07:18:04;100882.09;;;13.38;100.00
11710;BME280;5911;51.036;6.972;2023-04-29T07:20:36;100886.84;;;13.45;100.00
11710;BME280;5911;51.036;6.972;2023-04-29T07:23:04;100889.91;;;13.50;100.00
11710;BME280;5911;51.036;6.972;2023-04-29T07:25:32;100905.97;;;13.48;100.00
11710;BME280;5911;51.036;6.972;2023-04-29T07:28:01;100908.47;;;13.50;100.00
11710;BME280;5911;51.036;6.972;2023-04-29T07:30:29;100909.44;;;13.49;100.00
11710;BME280;5911;51.036;6.972;2023-04-29T07:32:57;100904.59;;;13.54;100.00
11710;BME280;5911;51.036;6.972;2023-04-29T07:35:25;100902.91;;;13.53;100.00
11710;BME280;5911;51.036;6.972;2023-04-29T07:37:55;100909.31;;;13.60;100.00
11710;BME280;5911;51.036;6.972;2023-04-29T07:40:24;100916.88;;;13.55;100.00
11710;BME280;5911;51.036;6.972;2023-04-29T07:42:56;100920.50;;;13.54;100.00
11710;BME280;5911;51.036;6.972;2023-04-29T07:45:24;100919.78;;;13.52;100.00
11710;BME280;5911;51.036;6.972;2023-04-29T07:47:51;100913.50;;;13.53;100.00
11710;BME280;5911;51.036;6.972;2023-04-29T07:50:19;100919.06;;;13.50;100.00
11710;BME280;5911;51.036;6.972;2023-04-29T07:52:48;100912.22;;;13.37;100.00
11710;BME280;5911;51.036;6.972;2023-04-29T07:55:17;100931.88;;;13.45;100.00
11710;BME280;5911;51.036;6.972;2023-04-29T07:57:45;100931.22;;;13.43;100.00
11710;BME280;5911;51.036;6.972;2023-04-29T08:00:13;100930.78;;;13.37;100.00
11710;BME280;5911;51.036;6.972;2023-04-29T08:02:41;100934.97;;;13.40;100.00
11710;BME280;5911;51.036;6.972;2023-04-29T08:05:13;100928.81;;;13.40;100.00
11710;BME280;5911;51.036;6.972;2023-04-29T08:07:41;100935.25;;;13.47;100.00
11710;BME280;5911;51.036;6.972;2023-04-29T08:10:09;100940.00;;;13.43;100.00
11710;BME280;5911;51.036;6.972;2023-04-29T08:12:41;100944.88;;;13.48;100.00
11710;BME280;5911;51.036;6.972;2023-04-29T08:15:11;100947.13;;;13.52;100.00
11710;BME280;5911;51.036;6.972;2023-04-29T08:17:39;100946.84;;;13.55;100.00
11710;BME280;5911;51.036;6.972;2023-04-29T08:20:08;100953.72;;;13.67;100.00
11710;BME280;5911;51.036;6.972;2023-04-29T08:22:39;100959.72;;;13.69;100.00
11710;BME280;5911;51.036;6.972;2023-04-29T08:25:08;100944.91;;;13.67;100.00
11710;BME280;5911;51.036;6.972;2023-04-29T08:27:36;100958.31;;;13.75;100.00
11710;BME280;5911;51.036;6.972;2023-04-29T08:30:07;100964.75;;;13.82;100.00
11710;BME280;5911;51.036;6.972;2023-04-29T08:32:35;100963.78;;;13.83;100.00
11710;BME280;5911;51.036;6.972;2023-04-29T08:35:03;100970.38;;;13.89;100.00
11710;BME280;5911;51.036;6.972;2023-04-29T08:37:31;100968.38;;;13.91;100.00
11710;BME280;5911;51.036;6.972;2023-04-29T08:39:59;100963.78;;;13.83;100.00
11710;BME280;5911;51.036;6.972;2023-04-29T08:42:32;100969.34;;;13.80;100.00
11710;BME280;5911;51.036;6.972;2023-04-29T08:45:02;100971.03;;;13.81;100.00
11710;BME280;5911;51.036;6.972;2023-04-29T08:47:32;100973.56;;;13.83;100.00
11710;BME280;5911;51.036;6.972;2023-04-29T08:50:02;100965.03;;;13.69;100.00
11710;BME280;5911;51.036;6.972;2023-04-29T08:52:30;100984.56;;;13.78;100.00
11710;BME280;5911;51.036;6.972;2023-04-29T08:54:59;100981.38;;;13.75;100.00
11710;BME280;5911;51.036;6.972;2023-04-29T08:57:29;100985.00;;;13.83;100.00
11710;BME280;5911;51.036;6.972;2023-04-29T08:59:58;100989.59;;;13.91;100.00
11710;BME280;5911;51.036;6.972;2023-04-29T09:02:27;100998.84;;;13.96;100.00
11710;BME280;5911;51.036;6.972;2023-04-29T09:05:08;100999.28;;;14.01;100.00
11710;BME280;5911;51.036;6.972;2023-04-29T09:07:37;101006.53;;;13.99;100.00
11710;BME280;5911;51.036;6.972;2023-04-29T09:10:06;101011.00;;;13.99;100.00
11710;BME280;5911;51.036;6.972;2023-04-29T09:12:34;101003.44;;;13.94;100.00
11710;BME280;5911;51.036;6.972;2023-04-29T09:15:03;101002.31;;;13.87;100.00
11710;BME280;5911;51.036;6.972;2023-04-29T09:17:38;101009.56;;;13.85;100.00
11710;BME280;5911;51.036;6.972;2023-04-29T09:20:29;101010.81;;;13.81;100.00
11710;BME280;5911;51.036;6.972;2023-04-29T09:22:58;101001.75;;;13.74;100.00
11710;BME280;5911;51.036;6.972;2023-04-29T09:25:27;101013.19;;;13.75;100.00
11710;BME280;5911;51.036;6.972;2023-04-29T09:27:55;101017.78;;;13.82;100.00
11710;BME280;5911;51.036;6.972;2023-04-29T09:30:24;101018.19;;;13.78;100.00
11710;BME280;5911;51.036;6.972;2023-04-29T09:33:03;101027.00;;;13.78;100.00
11710;BME280;5911;51.036;6.972;2023-04-29T09:35:34;101024.06;;;13.81;100.00
11710;BME280;5911;51.036;6.972;2023-04-29T09:38:12;101030.34;;;13.80;100.00
11710;BME280;5911;51.036;6.972;2023-04-29T09:40:41;101031.75;;;13.75;100.00
11710;BME280;5911;51.036;6.972;2023-04-29T09:43:24;101015.34;;;13.60;100.00
11710;BME280;5911;51.036;6.972;2023-04-29T09:45:52;101013.25;;;13.54;100.00
11710;BME280;5911;51.036;6.972;2023-04-29T09:48:20;101030.47;;;13.69;100.00
11710;BME280;5911;51.036;6.972;2023-04-29T09:51:00;101031.84;;;13.63;100.00
11710;BME280;5911;51.036;6.972;2023-04-29T09:53:29;101029.75;;;13.67;100.00
11710;BME280;5911;51.036;6.972;2023-04-29T09:55:58;101040.34;;;13.67;100.00
11710;BME280;5911;51.036;6.972;2023-04-29T09:58:27;101051.09;;;13.65;100.00
11710;BME280;5911;51.036;6.972;2023-04-29T10:00:58;101051.81;;;13.67;100.00
11710;BME280;5911;51.036;6.972;2023-04-29T10:03:31;101060.03;;;13.64;100.00
11710;BME280;5911;51.036;6.972;2023-04-29T10:06:02;101059.19;;;13.64;100.00
11710;BME280;5911;51.036;6.972;2023-04-29T10:08:31;101058.06;;;13.66;100.00
11710;BME280;5911;51.036;6.972;2023-04-29T10:11:01;101060.59;;;13.68;100.00
11710;BME280;5911;51.036;6.972;2023-04-29T10:13:30;101044.34;;;13.52;100.00
11710;BME280;5911;51.036;6.972;2023-04-29T10:16:10;101066.56;;;13.60;100.00
11710;BME280;5911;51.036;6.972;2023-04-29T10:18:40;101064.75;;;13.61;100.00
11710;BME280;5911;51.036;6.972;2023-04-29T10:21:12;101069.91;;;13.62;100.00
11710;BME280;5911;51.036;6.972;2023-04-29T10:23:41;101070.75;;;13.63;100.00
11710;BME280;5911;51.036;6.972;2023-04-29T10:26:11;101064.91;;;13.59;100.00
11710;BME280;5911;51.036;6.972;2023-04-29T10:28:41;101071.00;;;13.60;100.00
11710;BME280;5911;51.036;6.972;2023-04-29T10:31:11;101070.88;;;13.61;100.00
11710;BME280;5911;51.036;6.972;2023-04-29T10:33:43;101076.75;;;13.65;100.00
11710;BME280;5911;51.036;6.972;2023-04-29T10:36:14;101073.59;;;13.71;100.00
11710;BME280;5911;51.036;6.972;2023-04-29T10:38:45;101070.69;;;13.74;100.00
11710;BME280;5911;51.036;6.972;2023-04-29T10:41:19;101075.97;;;13.74;100.00
11710;BME280;5911;51.036;6.972;2023-04-29T10:43:50;101079.31;;;13.76;100.00
11710;BME280;5911;51.036;6.972;2023-04-29T10:46:20;101082.53;;;13.80;100.00
11710;BME280;5911;51.036;6.972;2023-04-29T10:48:49;101084.34;;;13.79;100.00
11710;BME280;5911;51.036;6.972;2023-04-29T10:51:29;101084.34;;;13.79;100.00
11710;BME280;5911;51.036;6.972;2023-04-29T10:54:01;101084.34;;;13.79;100.00
11710;BME280;5911;51.036;6.972;2023-04-29T10:56:46;101082.41;;;13.81;100.00
11710;BME280;5911;51.036;6.972;2023-04-29T10:59:15;101082.53;;;13.80;100.00
11710;BME280;5911;51.036;6.972;2023-04-29T11:01:48;101086.03;;;13.80;100.00
11710;BME280;5911;51.036;6.972;2023-04-29T11:04:17;101087.44;;;13.75;100.00
11710;BME280;5911;51.036;6.972;2023-04-29T11:06:51;101086.03;;;13.80;100.00
11710;BME280;5911;51.036;6.972;2023-04-29T11:09:20;101099.88;;;13.84;100.00
11710;BME280;5911;51.036;6.972;2023-04-29T11:11:56;101096.38;;;13.83;100.00
11710;BME280;5911;51.036;6.972;2023-04-29T11:14:25;101103.09;;;13.87;100.00
11710;BME280;5911;51.036;6.972;2023-04-29T11:16:56;101098.91;;;13.94;100.00
11710;BME280;5911;51.036;6.972;2023-04-29T11:19:29;101095.84;;;13.89;100.00
11710;BME280;5911;51.036;6.972;2023-04-29T11:22:10;101094.03;;;13.90;100.00
11710;BME280;5911;51.036;6.972;2023-04-29T11:24:52;101094.16;;;13.88;100.00
11710;BME280;5911;51.036;6.972;2023-04-29T11:27:22;101089.84;;;13.87;100.00
11710;BME280;5911;51.036;6.972;2023-04-29T11:29:52;101092.50;;;13.87;100.00
11710;BME280;5911;51.036;6.972;2023-04-29T11:32:24;101091.06;;;13.83;100.00
11710;BME280;5911;51.036;6.972;2023-04-29T11:34:52;101096.38;;;13.83;100.00
11710;BME280;5911;51.036;6.972;2023-04-29T11:37:24;101096.81;;;13.88;100.00
11710;BME280;5911;51.036;6.972;2023-04-29T11:39:58;101101.16;;;13.89;100.00
11710;BME280;5911;51.036;6.972;2023-04-29T11:42:26;101109.53;;;13.94;100.00
11710;BME280;5911;51.036;6.972;2023-04-29T11:44:54;101097.78;;;13.87;100.00
11710;BME280;5911;51.036;6.972;2023-04-29T11:47:25;101105.63;;;13.89;100.00
11710;BME280;5911;51.036;6.972;2023-04-29T11:50:01;101108.09;;;13.90;100.00
11710;BME280;5911;51.036;6.972;2023-04-29T11:52:31;101113.84;;;13.95;100.00
11710;BME280;5911;51.036;6.972;2023-04-29T11:54:59;101115.94;;;13.92;100.00
11710;BME280;5911;51.036;6.972;2023-04-29T11:57:27;101120.97;;;13.95;100.00
11710;BME280;5911;51.036;6.972;2023-04-29T11:59:56;101104.78;;;13.88;100.00
11710;BME280;5911;51.036;6.972;2023-04-29T12:02:29;101111.59;;;13.91;100.00
11710;BME280;5911;51.036;6.972;2023-04-29T12:05:04;101119.16;;;13.95;100.00
11710;BME280;5911;51.036;6.972;2023-04-29T12:07:34;101114.56;;;13.97;100.00
11710;BME280;5911;51.036;6.972;2023-04-29T12:10:07;101104.22;;;13.94;100.00
11710;BME280;5911;51.036;6.972;2023-04-29T12:12:35;101120.72;;;14.07;100.00
11710;BME280;5911;51.036;6.972;2023-04-29T12:15:07;101119.06;;;14.06;100.00
11710;BME280;5911;51.036;6.972;2023-04-29T12:17:37;101113.47;;;14.09;100.00
11710;BME280;5911;51.036;6.972;2023-04-29T12:20:06;101111.25;;;14.05;100.00
11710;BME280;5911;51.036;6.972;2023-04-29T12:22:36;101120.91;;;14.16;100.00
11710;BME280;5911;51.036;6.972;2023-04-29T12:25:04;101122.31;;;14.20;100.00
11710;BME280;5911;51.036;6.972;2023-04-29T12:27:34;101121.75;;;14.26;100.00
11710;BME280;5911;51.036;6.972;2023-04-29T12:30:05;101119.28;;;14.34;100.00
11710;BME280;5911;51.036;6.972;2023-04-29T12:32:33;101119.97;;;14.36;100.00
11710;BME280;5911;51.036;6.972;2023-04-29T12:35:02;101111.91;;;14.47;100.00
11710;BME280;5911;51.036;6.972;2023-04-29T12:37:31;101108.84;;;14.61;100.00
11710;BME280;5911;51.036;6.972;2023-04-29T12:40:03;101111.94;;;14.76;100.00
11710;BME280;5911;51.036;6.972;2023-04-29T12:42:31;101115.97;;;14.90;100.00
11710;BME280;5911;51.036;6.972;2023-04-29T12:45:00;101110.22;;;15.04;100.00
11710;BME280;5911;51.036;6.972;2023-04-29T12:47:31;101104.22;;;15.11;100.00
11710;BME280;5911;51.036;6.972;2023-04-29T12:50:00;101102.50;;;15.20;100.00
11710;BME280;5911;51.036;6.972;2023-04-29T12:52:28;101108.78;;;15.38;100.00
11710;BME280;5911;51.036;6.972;2023-04-29T12:54:56;101117.44;;;15.40;100.00
11710;BME280;5911;51.036;6.972;2023-04-29T12:57:27;101110.97;;;15.43;100.00
11710;BME280;5911;51.036;6.972;2023-04-29T12:59:54;101117.41;;;15.50;100.00
11710;BME280;5911;51.036;6.972;2023-04-29T13:02:22;101110.28;;;15.51;100.00
11710;BME280;5911;51.036;6.972;2023-04-29T13:04:51;101125.69;;;15.57;100.00
11710;BME280;5911;51.036;6.972;2023-04-29T13:07:19;101108.19;;;15.44;100.00
11710;BME280;5911;51.036;6.972;2023-04-29T13:09:47;101131.41;;;15.52;100.00